Time;durP1;ratioP1;P1;durP2;ratioP2;P2;SDS_P1;SDS_P2;PMS_P1;PMS_P2;Temp;Humidity;BMP_temperature;BMP_pressure;BME280_temperature;BME280_humidity;BME280_pressure;Samples;Min_cycle;Max_cycle;Signal;HPM_P1;HPM_P2
2022/03/18 00:00:46;;;;;;;22.40;7.28;;;;;;;;;;4988970;28;20030;-66
2022/03/18 00:03:11;;;;;;;24.27;8.23;;;9.50;99.90;;;;;;4989019;28;20030;-66
2022/03/18 00:05:37;;;;;;;16.33;6.10;;;;;;;;;;4987887;28;20499;-66
2022/03/18 00:08:04;;;;;;;20.90;6.85;;;9.50;99.90;;;;;;4988949;28;20408;-66
2022/03/18 00:10:31;;;;;;;16.00;7.93;;;;;;;;;;4988544;28;20026;-65
2022/03/18 00:12:58;;;;;;;19.50;6.90;;;;;;;;;;4988347;28;20073;-67
2022/03/18 00:15:24;;;;;;;18.02;7.40;;;;;;;;;;4989600;28;20058;-66
2022/03/18 00:17:54;;;;;;;19.35;8.80;;;;;;;;;;4988208;28;20048;-66
2022/03/18 00:20:20;;;;;;;17.60;7.63;;;;;;;;;;4988036;28;20101;-67
2022/03/18 00:22:46;;;;;;;14.30;6.57;;;9.60;99.60;;;;;;4993627;28;20040;-65
2022/03/18 00:25:13;;;;;;;15.70;6.30;;;;;;;;;;4987914;28;20125;-65
2022/03/18 00:27:42;;;;;;;19.17;8.70;;;9.50;99.70;;;;;;4988629;28;20106;-66
2022/03/18 00:30:09;;;;;;;18.30;7.07;;;;;;;;;;4988867;28;20026;-67
2022/03/18 00:32:37;;;;;;;26.02;6.68;;;;;;;;;;4987781;28;20034;-66
2022/03/18 00:35:03;;;;;;;18.17;7.47;;;;;;;;;;4987568;28;20061;-66
2022/03/18 00:37:29;;;;;;;25.33;8.00;;;;;;;;;;4995899;28;20717;-67
2022/03/18 00:39:55;;;;;;;17.05;7.22;;;;;;;;;;4988354;28;20042;-66
2022/03/18 00:42:21;;;;;;;13.43;6.90;;;;;;;;;;4989495;28;20036;-66
2022/03/18 00:44:48;;;;;;;18.75;8.95;;;9.70;99.90;;;;;;4987050;28;20121;-67
2022/03/18 00:52:43;;;;;;;14.85;7.32;;;;;;;;;;4988078;28;20213;-67
2022/03/18 00:55:10;;;;;;;20.48;7.10;;;;;;;;;;4987413;28;20133;-67
2022/03/18 00:57:36;;;;;;;19.27;7.22;;;10.00;99.10;;;;;;4987732;28;20026;-67
2022/03/18 01:00:03;;;;;;;20.47;6.07;;;;;;;;;;4988579;28;20070;-65
2022/03/18 01:02:29;;;;;;;13.33;7.13;;;;;;;;;;4988391;28;20523;-66
2022/03/18 01:04:55;;;;;;;16.95;7.40;;;;;;;;;;4987386;28;20042;-66
2022/03/18 01:07:21;;;;;;;18.13;9.20;;;;;;;;;;4989400;28;20029;-66
2022/03/18 01:09:47;;;;;;;15.05;5.78;;;;;;;;;;4991895;28;20403;-66
2022/03/18 01:12:13;;;;;;;23.17;7.97;;;;;;;;;;4992966;28;20023;-66
2022/03/18 01:14:39;;;;;;;17.83;7.68;;;;;;;;;;4991214;28;20034;-67
2022/03/18 01:17:05;;;;;;;24.35;8.38;;;9.60;99.90;;;;;;4990965;28;20041;-66
2022/03/18 01:19:31;;;;;;;15.88;8.02;;;;;;;;;;4991540;28;20415;-66
2022/03/18 01:21:57;;;;;;;12.13;4.97;;;;;;;;;;4991376;28;20470;-66
2022/03/18 01:24:23;;;;;;;17.80;6.10;;;;;;;;;;4990236;28;20034;-66
2022/03/18 01:26:49;;;;;;;11.40;5.10;;;;;;;;;;4990864;28;20162;-67
2022/03/18 01:29:15;;;;;;;11.50;5.80;;;;;;;;;;4990739;28;20027;-67
2022/03/18 01:31:42;;;;;;;11.32;6.38;;;9.30;99.40;;;;;;4990772;28;20089;-67
2022/03/18 01:34:08;;;;;;;16.50;6.72;;;;;;;;;;4991068;28;20027;-66
2022/03/18 01:36:34;;;;;;;19.27;7.38;;;;;;;;;;4990580;28;20113;-66
2022/03/18 01:39:00;;;;;;;11.00;5.18;;;9.30;99.90;;;;;;4991440;28;20036;-66
2022/03/18 01:41:26;;;;;;;17.35;6.35;;;;;;;;;;4991157;28;20038;-66
2022/03/18 01:43:53;;;;;;;12.95;6.65;;;9.40;99.90;;;;;;4988073;28;20038;-66
2022/03/18 01:46:19;;;;;;;15.53;6.60;;;;;;;;;;4990673;28;20038;-66
2022/03/18 01:48:45;;;;;;;14.23;7.63;;;9.20;99.00;;;;;;4990197;28;20041;-67
2022/03/18 01:51:15;;;;;;;17.50;6.55;;;;;;;;;;4990693;28;20046;-64
2022/03/18 01:53:43;;;;;;;13.38;6.03;;;9.20;99.90;;;;;;4990356;28;20030;-65
2022/03/18 01:56:09;;;;;;;17.77;8.27;;;;;;;;;;4990823;28;20038;-66
2022/03/18 01:58:35;;;;;;;20.33;8.02;;;;;;;;;;4990017;28;20030;-66
2022/03/18 02:01:02;;;;;;;22.98;9.45;;;;;;;;;;4990863;28;20402;-65
2022/03/18 02:03:28;;;;;;;23.98;10.25;;;;;;;;;;4991732;28;20026;-66
2022/03/18 02:05:54;;;;;;;26.58;8.82;;;;;;;;;;4990559;28;20034;-67
2022/03/18 02:08:21;;;;;;;25.02;9.85;;;9.40;99.90;;;;;;4990069;28;20042;-66
2022/03/18 02:10:47;;;;;;;24.20;9.20;;;;;;;;;;4990554;28;20061;-65
2022/03/18 02:13:13;;;;;;;30.98;8.68;;;;;;;;;;4990498;28;20456;-68
2022/03/18 02:15:39;;;;;;;24.77;8.43;;;;;;;;;;4990465;28;20034;-67
2022/03/18 02:18:06;;;;;;;27.85;10.70;;;;;;;;;;4991053;28;20023;-67
2022/03/18 02:20:35;;;;;;;27.48;9.63;;;;;;;;;;4989888;28;20423;-66
2022/03/18 02:23:04;;;;;;;23.58;10.40;;;;;;;;;;4990412;28;20120;-66
2022/03/18 02:25:31;;;;;;;19.58;9.18;;;;;;;;;;4990161;28;20093;-67
2022/03/18 02:27:59;;;;;;;29.17;9.02;;;9.60;99.80;;;;;;4990352;28;20034;-67
2022/03/18 02:30:28;;;;;;;33.47;10.07;;;;;;;;;;4990336;28;20041;-66
2022/03/18 02:32:54;;;;;;;22.80;8.18;;;;;;;;;;4990066;28;20072;-67
2022/03/18 02:35:20;;;;;;;27.08;10.98;;;;;;;;;;4989984;28;20450;-66
2022/03/18 02:37:46;;;;;;;27.27;12.70;;;;;;;;;;4990123;28;20042;-66
2022/03/18 02:40:15;;;;;;;24.27;10.40;;;9.50;99.90;;;;;;4989847;28;20391;-65
2022/03/18 02:42:41;;;;;;;23.65;9.30;;;;;;;;;;4989934;28;20062;-65
2022/03/18 02:45:08;;;;;;;30.92;10.35;;;;;;;;;;4989875;28;20503;-66
2022/03/18 02:47:34;;;;;;;25.95;9.73;;;;;;;;;;4989487;28;20038;-67
2022/03/18 02:50:00;;;;;;;25.30;10.48;;;9.40;99.90;;;;;;4987841;28;20065;-67
2022/03/18 02:52:26;;;;;;;21.73;9.07;;;;;;;;;;4989797;28;20054;-66
2022/03/18 02:54:52;;;;;;;30.25;11.05;;;;;;;;;;4989669;28;20717;-64
2022/03/18 02:57:18;;;;;;;33.47;10.13;;;9.30;99.90;;;;;;4990428;28;20033;-66
2022/03/18 02:59:44;;;;;;;20.75;9.65;;;;;;;;;;4989550;28;20030;-66
2022/03/18 03:02:12;;;;;;;24.77;9.30;;;9.20;99.90;;;;;;4989509;28;20038;-65
2022/03/18 03:07:58;;;;;;;;;;;9.30;99.90;;;;;;4989756;28;20380;-66
2022/03/18 03:10:08;;;;;;;21.80;9.35;;;;;;;;;;4975320;28;20671;-66
2022/03/18 03:12:34;;;;;;;19.25;8.55;;;;;;;;;;4989019;28;20117;-66
2022/03/18 03:15:00;;;;;;;23.77;10.73;;;;;;;;;;4989901;28;20133;-66
2022/03/18 03:17:26;;;;;;;22.77;10.30;;;;;;;;;;4989343;28;20042;-67
2022/03/18 03:19:54;;;;;;;19.13;9.10;;;9.40;99.90;;;;;;4989189;28;20030;-66
2022/03/18 03:22:21;;;;;;;17.58;8.20;;;;;;;;;;4988840;28;20050;-66
2022/03/18 03:24:47;;;;;;;17.60;8.35;;;;;;;;;;4989335;28;20065;-66
2022/03/18 03:27:13;;;;;;;21.77;8.43;;;9.30;99.90;;;;;;4990266;28;20037;-67
2022/03/18 03:29:39;;;;;;;19.13;9.43;;;;;;;;;;4988547;28;20038;-67
2022/03/18 03:32:05;;;;;;;24.67;9.02;;;;;;;;;;4988815;28;20085;-67
2022/03/18 03:34:32;;;;;;;20.10;7.03;;;;;;;;;;4989213;28;20030;-66
2022/03/18 03:36:58;;;;;;;23.67;8.30;;;;;;;;;;4989516;28;20055;-66
2022/03/18 03:39:24;;;;;;;15.13;7.35;;;;;;;;;;4989919;28;20531;-66
2022/03/18 03:41:50;;;;;;;22.25;9.10;;;;;;;;;;4988915;28;20479;-67
2022/03/18 03:44:16;;;;;;;18.10;6.55;;;;;;;;;;4987746;28;20121;-67
2022/03/18 03:46:43;;;;;;;24.45;8.95;;;;;;;;;;4988666;28;20023;-67
2022/03/18 03:49:09;;;;;;;21.27;8.65;;;;;;;;;;4986872;28;20077;-65
2022/03/18 03:51:35;;;;;;;21.70;8.63;;;;;;;;;;4989054;28;20058;-65
2022/03/18 03:54:01;;;;;;;19.17;7.93;;;;;;;;;;4987815;28;20039;-67
2022/03/18 03:56:27;;;;;;;24.13;9.23;;;;;;;;;;4988239;28;20131;-67
2022/03/18 03:58:53;;;;;;;19.67;8.15;;;;;;;;;;4988401;28;20022;-66
2022/03/18 04:01:19;;;;;;;16.85;8.63;;;;;;;;;;4988550;28;20034;-67
2022/03/18 04:03:47;;;;;;;18.80;9.63;;;;;;;;;;4987580;28;20022;-66
2022/03/18 04:06:13;;;;;;;20.20;8.25;;;;;;;;;;4989474;28;20038;-67
2022/03/18 04:08:39;;;;;;;15.98;8.02;;;;;;;;;;4988322;28;20038;-68
2022/03/18 04:11:05;;;;;;;19.13;8.73;;;9.20;99.90;;;;;;4988116;28;20185;-66
2022/03/18 04:13:31;;;;;;;19.02;9.45;;;;;;;;;;4988278;28;20117;-67
2022/03/18 04:15:57;;;;;;;25.23;8.48;;;;;;;;;;4988707;28;20031;-65
2022/03/18 04:18:23;;;;;;;26.65;9.00;;;;;;;;;;4988979;28;20042;-67
2022/03/18 04:20:49;;;;;;;24.88;8.68;;;;;;;;;;4988473;28;20042;-66
2022/03/18 04:23:15;;;;;;;25.45;10.02;;;9.30;99.90;;;;;;4988303;28;20038;-66
2022/03/18 04:25:41;;;;;;;19.35;8.27;;;;;;;;;;4987596;28;20084;-65
2022/03/18 04:28:07;;;;;;;19.80;8.80;;;;;;;;;;4988464;28;20034;-66
2022/03/18 04:30:33;;;;;;;18.92;9.02;;;;;;;;;;4989022;28;20026;-67
2022/03/18 04:32:59;;;;;;;23.60;10.00;;;;;;;;;;4988465;28;20030;-66
2022/03/18 04:35:25;;;;;;;18.10;8.48;;;9.20;99.90;;;;;;4987718;28;20031;-66
2022/03/18 04:37:51;;;;;;;24.67;7.90;;;;;;;;;;4988637;28;20041;-66
2022/03/18 04:40:17;;;;;;;22.75;10.68;;;;;;;;;;4988493;28;20033;-67
2022/03/18 04:42:44;;;;;;;16.45;7.85;;;;;;;;;;4989661;28;20037;-66
2022/03/18 04:45:10;;;;;;;;;;;;;;;;;;4993026;28;20503;-66
2022/03/18 04:47:36;;;;;;;19.58;8.55;;;;;;;;;;4983860;28;19944;-66
2022/03/18 04:50:03;;;;;;;28.27;9.50;;;;;;;;;;4985187;28;20037;-65
2022/03/18 04:52:29;;;;;;;22.23;9.43;;;;;;;;;;4992147;28;20045;-67
2022/03/18 04:54:55;;;;;;;19.08;8.05;;;;;;;;;;4991455;28;20046;-66
2022/03/18 04:57:21;;;;;;;20.58;8.73;;;;;;;;;;4992433;28;20105;-67
2022/03/18 04:59:48;;;;;;;23.30;8.93;;;;;;;;;;4978353;28;20023;-66
2022/03/18 05:02:15;;;;;;;16.33;8.07;;;;;;;;;;4991834;28;20117;-67
2022/03/18 05:04:41;;;;;;;22.42;11.05;;;;;;;;;;4991566;28;20054;-66
2022/03/18 05:07:08;;;;;;;24.15;8.48;;;;;;;;;;4991109;28;20026;-65
2022/03/18 05:09:34;;;;;;;23.33;10.38;;;;;;;;;;4991973;28;20729;-67
2022/03/18 05:11:59;;;;;;;20.20;7.15;;;9.30;99.90;;;;;;4992447;28;20109;-65
2022/03/18 05:14:25;;;;;;;26.02;8.45;;;;;;;;;;4991598;28;20030;-66
2022/03/18 05:16:52;;;;;;;24.55;9.77;;;;;;;;;;4990528;28;20881;-64
2022/03/18 05:19:18;;;;;;;22.92;9.77;;;9.10;99.90;;;;;;4991293;28;20026;-67
2022/03/18 05:21:44;;;;;;;19.17;9.32;;;;;;;;;;5004646;28;20491;-67
2022/03/18 05:24:10;;;;;;;23.08;9.65;;;9.20;99.90;;;;;;4992022;28;20034;-65
2022/03/18 05:26:37;;;;;;;16.58;7.82;;;;;;;;;;4990954;28;20034;-67
2022/03/18 05:29:03;;;;;;;19.63;7.55;;;;;;;;;;4990873;28;20058;-66
2022/03/18 05:31:31;;;;;;;16.85;9.45;;;;;;;;;;4991036;28;20133;-66
2022/03/18 05:33:57;;;;;;;27.88;9.90;;;;;;;;;;4975780;28;20486;-66
2022/03/18 05:36:24;;;;;;;17.13;8.15;;;;;;;;;;4992447;28;20546;-66
2022/03/18 05:38:49;;;;;;;22.75;9.52;;;9.10;99.90;;;;;;4990658;28;20499;-67
2022/03/18 05:41:16;;;;;;;15.50;7.07;;;;;;;;;;4991198;28;20045;-65
2022/03/18 05:43:43;;;;;;;21.63;10.07;;;;;;;;;;4990969;28;20038;-66
2022/03/18 05:46:10;;;;;;;21.50;6.90;;;;;;;;;;4991203;28;20042;-67
2022/03/18 05:48:36;;;;;;;19.67;7.88;;;;;;;;;;4990473;28;20026;-66
2022/03/18 05:51:02;;;;;;;18.85;9.15;;;;;;;;;;4990560;28;20133;-65
2022/03/18 05:53:28;;;;;;;22.88;8.90;;;8.90;99.90;;;;;;4989986;28;20118;-66
2022/03/18 05:58:44;;;;;;;22.52;7.55;;;;;;;;;;4991011;28;20041;-66
2022/03/18 06:01:12;;;;;;;17.73;8.60;;;;;;;;;;4990651;28;20034;-66
2022/03/18 06:03:38;;;;;;;25.73;9.60;;;;;;;;;;4990597;28;20100;-67
2022/03/18 06:06:05;;;;;;;21.17;8.43;;;;;;;;;;4991377;28;20039;-66
2022/03/18 06:14:00;;;;;;;25.45;9.38;;;8.80;99.90;;;;;;4990495;28;20061;-66
2022/03/18 06:16:26;;;;;;;15.25;7.22;;;9.10;99.90;;;;;;4990419;28;20034;-65
2022/03/18 06:18:52;;;;;;;18.92;8.63;;;;;;;;;;4989354;28;20034;-67
2022/03/18 06:21:17;;;;;;;19.20;7.10;;;9.20;99.90;;;;;;4989554;28;20463;-69
2022/03/18 06:23:44;;;;;;;17.17;8.05;;;;;;;;;;4982215;28;20038;-67
2022/03/18 06:26:10;;;;;;;24.15;7.55;;;9.20;99.90;;;;;;4987617;28;20046;-67
2022/03/18 06:28:36;;;;;;;25.67;8.48;;;;;;;;;;4988236;28;20154;-66
2022/03/18 06:31:03;;;;;;;19.55;7.18;;;;;;;;;;4986978;28;20769;-67
2022/03/18 06:33:30;;;;;;;25.30;7.70;;;;;;;;;;4985274;28;20044;-68
2022/03/18 06:35:56;;;;;;;23.33;8.13;;;;;;;;;;4986655;28;20118;-67
2022/03/18 06:38:22;;;;;;;15.32;7.35;;;;;;;;;;4984609;28;20042;-67
2022/03/18 06:40:49;;;;;;;21.35;7.00;;;;;;;;;;4986287;28;20034;-67
2022/03/18 06:43:15;;;;;;;20.23;8.57;;;;;;;;;;4983757;28;20030;-67
2022/03/18 06:45:41;;;;;;;18.20;8.30;;;;;;;;;;4984678;28;20090;-67
2022/03/18 06:48:07;;;;;;;17.08;6.80;;;;;;;;;;4987368;28;20030;-67
2022/03/18 06:50:34;;;;;;;17.35;6.65;;;;;;;;;;4984002;28;20030;-67
2022/03/18 06:53:00;;;;;;;19.27;6.93;;;;;;;;;;4986844;28;20499;-67
2022/03/18 06:55:26;;;;;;;12.73;5.03;;;;;;;;;;4985285;28;20097;-66
2022/03/18 06:57:53;;;;;;;20.05;7.93;;;;;;;;;;4988411;28;20192;-65
2022/03/18 07:00:19;;;;;;;20.48;7.38;;;;;;;;;;4989289;28;20040;-69
2022/03/18 07:02:45;;;;;;;21.25;7.43;;;;;;;;;;4987688;28;20034;-65
2022/03/18 07:05:12;;;;;;;18.23;6.38;;;;;;;;;;4987280;28;20034;-65
2022/03/18 07:07:38;;;;;;;12.70;6.63;;;8.80;99.90;;;;;;4987737;28;20081;-64
2022/03/18 07:10:04;;;;;;;13.88;7.43;;;;;;;;;;4988328;28;20034;-66
2022/03/18 07:12:30;;;;;;;16.23;7.43;;;;;;;;;;4988236;28;20113;-65
2022/03/18 07:14:56;;;;;;;14.52;5.78;;;;;;;;;;4988478;28;20029;-64
2022/03/18 07:20:07;;;;;;;13.85;6.38;;;;;;;;;;4986992;28;20142;-64
2022/03/18 07:22:33;;;;;;;18.88;6.53;;;;;;;;;;4986829;28;20089;-65
2022/03/18 07:24:59;;;;;;;14.48;5.95;;;;;;;;;;4987707;28;20038;-71
2022/03/18 07:27:25;;;;;;;18.33;5.57;;;;;;;;;;4988752;28;20110;-70
2022/03/18 07:29:51;;;;;;;14.50;7.00;;;;;;;;;;4973359;28;20052;-66
2022/03/18 07:32:17;;;;;;;14.25;6.82;;;;;;;;;;4985557;28;20069;-66
2022/03/18 07:34:43;;;;;;;12.00;6.93;;;;;;;;;;4984790;28;20034;-67
2022/03/18 07:37:09;;;;;;;18.27;8.55;;;;;;;;;;4985558;28;20037;-67
2022/03/18 07:39:35;;;;;;;14.60;6.93;;;;;;;;;;4986557;28;20030;-67
2022/03/18 07:42:01;;;;;;;14.40;7.53;;;;;;;;;;4981236;28;20034;-67
2022/03/18 07:44:27;;;;;;;16.77;6.63;;;;;;;;;;4983805;28;20074;-66
2022/03/18 07:46:53;;;;;;;17.70;7.78;;;;;;;;;;4985747;28;20092;-65
2022/03/18 07:49:19;;;;;;;13.88;6.35;;;;;;;;;;4985203;28;20030;-71
2022/03/18 07:51:45;;;;;;;12.80;5.43;;;;;;;;;;4978537;28;20503;-70
2022/03/18 07:54:11;;;;;;;16.92;6.35;;;;;;;;;;4986235;28;20034;-69
2022/03/18 07:56:37;;;;;;;26.30;6.65;;;;;;;;;;4985023;28;20037;-69
2022/03/18 07:59:04;;;;;;;15.90;6.88;;;;;;;;;;4983862;28;20038;-66
2022/03/18 08:01:30;;;;;;;15.05;6.97;;;;;;;;;;4978477;28;20526;-66
2022/03/18 08:03:56;;;;;;;20.00;8.10;;;;;;;;;;4985726;28;20403;-66
2022/03/18 08:06:22;;;;;;;12.90;5.82;;;;;;;;;;4982704;28;20034;-66
2022/03/18 08:08:48;;;;;;;8.48;4.78;;;;;;;;;;4984828;28;20030;-64
2022/03/18 08:11:15;;;;;;;9.45;5.28;;;;;;;;;;4958839;28;20502;-67
2022/03/18 08:13:42;;;;;;;16.55;7.32;;;;;;;;;;4974642;28;20030;-66
2022/03/18 08:16:08;;;;;;;15.02;6.15;;;;;;;;;;4984965;28;20034;-66
2022/03/18 08:18:34;;;;;;;14.40;6.55;;;;;;;;;;4991235;28;20049;-67
2022/03/18 08:21:00;;;;;;;23.30;7.63;;;;;;;;;;4985786;28;20093;-66
2022/03/18 08:23:27;;;;;;;16.67;6.28;;;;;;;;;;4989006;28;20038;-67
2022/03/18 08:25:53;;;;;;;21.85;8.07;;;;;;;;;;4989447;28;20411;-67
2022/03/18 08:28:19;;;;;;;15.93;6.53;;;;;;;;;;4987618;28;20021;-66
2022/03/18 08:30:45;;;;;;;12.57;5.38;;;;;;;;;;4993442;28;20042;-67
2022/03/18 08:33:11;;;;;;;12.70;4.97;;;;;;;;;;5000851;28;20010;-67
2022/03/18 08:35:38;;;;;;;18.27;6.35;;;;;;;;;;4989158;28;20031;-67
2022/03/18 08:38:07;;;;;;;11.60;6.28;;;;;;;;;;5000266;28;20034;-67
2022/03/18 08:40:35;;;;;;;13.27;6.25;;;;;;;;;;4993531;28;20033;-66
2022/03/18 08:43:05;;;;;;;17.30;7.05;;;;;;;;;;4998969;28;20515;-66
2022/03/18 08:45:32;;;;;;;17.25;6.20;;;;;;;;;;5000934;28;20154;-68
2022/03/18 08:47:58;;;;;;;14.45;5.78;;;;;;;;;;5000741;28;20542;-67
2022/03/18 08:50:25;;;;;;;16.25;6.20;;;;;;;;;;4993660;28;20038;-67
2022/03/18 08:52:53;;;;;;;19.65;7.25;;;9.20;98.30;;;;;;4998803;28;20100;-68
2022/03/18 08:55:19;;;;;;;17.60;8.10;;;;;;;;;;5000113;28;20815;-66
2022/03/18 08:57:45;;;;;;;14.05;6.93;;;;;;;;;;4996370;28;20037;-67
2022/03/18 09:00:14;;;;;;;32.40;8.57;;;;;;;;;;4997546;28;20030;-68
2022/03/18 09:02:40;;;;;;;11.10;5.25;;;;;;;;;;4998580;28;20045;-66
2022/03/18 09:05:07;;;;;;;18.98;6.25;;;;;;;;;;4999692;28;20550;-68
2022/03/18 09:07:34;;;;;;;11.40;7.13;;;;;;;;;;4997883;28;20029;-67
2022/03/18 09:10:00;;;;;;;15.02;6.28;;;;;;;;;;4995070;28;20050;-68
2022/03/18 09:12:26;;;;;;;16.10;7.30;;;;;;;;;;4997919;28;20453;-69
2022/03/18 09:14:52;;;;;;;11.82;4.50;;;;;;;;;;5000009;28;20030;-66
2022/03/18 09:17:19;;;;;;;15.30;6.30;;;;;;;;;;4996343;28;20069;-65
2022/03/18 09:19:45;;;;;;;14.18;6.30;;;;;;;;;;4996530;28;20026;-67
2022/03/18 09:22:11;;;;;;;12.40;6.25;;;;;;;;;;4994525;28;20463;-67
2022/03/18 09:24:38;;;;;;;13.75;6.43;;;;;;;;;;5000655;28;20045;-67
2022/03/18 09:27:04;;;;;;;16.13;6.70;;;;;;;;;;5001105;28;20033;-66
2022/03/18 09:29:30;;;;;;;16.90;6.35;;;;;;;;;;4994391;28;20058;-65
2022/03/18 09:31:56;;;;;;;15.60;6.63;;;;;;;;;;4980005;28;20037;-66
2022/03/18 09:34:24;;;;;;;10.55;5.55;;;;;;;;;;4979006;28;20416;-66
2022/03/18 09:36:54;;;;;;;10.43;6.18;;;;;;;;;;4987279;28;20038;-66
2022/03/18 09:39:21;;;;;;;16.33;6.78;;;;;;;;;;4996537;28;20046;-70
2022/03/18 09:41:47;;;;;;;18.42;6.57;;;;;;;;;;4989417;28;20038;-69
2022/03/18 09:44:13;;;;;;;18.35;7.18;;;9.30;99.90;;;;;;4985070;28;20034;-64
2022/03/18 09:46:41;;;;;;;16.77;6.80;;;;;;;;;;4995158;28;20042;-66
2022/03/18 09:49:11;;;;;;;14.75;6.90;;;9.40;97.70;;;;;;4995303;28;20030;-65
2022/03/18 09:51:39;;;;;;;14.73;5.82;;;;;;;;;;4988384;28;20058;-64
2022/03/18 09:54:06;;;;;;;18.50;7.82;;;;;;;;;;4998265;28;20062;-66
2022/03/18 09:56:33;;;;;;;19.77;6.70;;;;;;;;;;4996654;28;20517;-66
2022/03/18 09:58:59;;;;;;;15.70;6.97;;;;;;;;;;4995603;28;20022;-65
2022/03/18 10:01:25;;;;;;;20.42;7.68;;;;;;;;;;4989797;28;20412;-65
2022/03/18 10:03:51;;;;;;;14.57;6.35;;;;;;;;;;4995089;28;20038;-64
2022/03/18 10:06:17;;;;;;;17.52;6.18;;;;;;;;;;4998379;28;20043;-64
2022/03/18 10:08:44;;;;;;;11.32;6.18;;;;;;;;;;4996266;28;20108;-63
2022/03/18 10:11:24;;;;;;;15.25;6.53;;;9.50;97.40;;;;;;4990796;28;20042;-65
2022/03/18 10:13:56;;;;;;;12.52;5.43;;;;;;;;;;4994226;28;20033;-66
2022/03/18 10:16:43;;;;;;;16.88;5.82;;;9.40;97.70;;;;;;4996981;28;20026;-65
2022/03/18 10:19:14;;;;;;;14.73;5.25;;;;;;;;;;4994544;28;20087;-64
2022/03/18 10:21:59;;;;;;;15.13;5.43;;;;;;;;;;4989134;28;20038;-65
2022/03/18 10:24:27;;;;;;;19.73;6.13;;;;;;;;;;4995511;28;20038;-66
2022/03/18 10:27:14;;;;;;;15.77;8.00;;;9.50;97.50;;;;;;4995094;28;20018;-65
2022/03/18 10:29:41;;;;;;;16.95;7.10;;;9.60;97.30;;;;;;4993907;28;20037;-69
2022/03/18 10:32:08;;;;;;;11.60;5.43;;;;;;;;;;4983583;28;20069;-70
2022/03/18 10:37:21;;;;;;;14.63;6.75;;;;;;;;;;4996241;28;20096;-71
2022/03/18 10:39:50;;;;;;;12.45;5.57;;;;;;;;;;4991644;28;20380;-69
2022/03/18 10:42:17;;;;;;;12.60;5.53;;;;;;;;;;4992646;28;20130;-69
2022/03/18 10:44:47;;;;;;;10.93;5.70;;;;;;;;;;4994142;28;20452;-67
2022/03/18 10:47:49;;;;;;;21.77;8.65;;;;;;;;;;4994982;28;20452;-67
2022/03/18 10:50:17;;;;;;;13.70;6.47;;;;;;;;;;4910076;29;20046;-67
2022/03/18 10:52:42;;;;;;;;;;;;;;;;;;4917915;29;20143;-67
2022/03/18 10:55:20;;;;;;;15.40;7.00;;;;;;;;;;4916680;29;20403;-66
2022/03/18 10:57:50;;;;;;;17.83;5.50;;;;;;;;;;4916661;29;20052;-68
2022/03/18 11:00:17;;;;;;;17.90;6.13;;;;;;;;;;4911826;29;20722;-67
2022/03/18 11:02:43;;;;;;;17.75;6.65;;;;;;;;;;4917409;29;20062;-67
2022/03/18 11:05:11;;;;;;;18.63;7.35;;;;;;;;;;4918069;29;20509;-67
2022/03/18 11:07:41;;;;;;;12.95;5.50;;;;;;;;;;4918047;29;20032;-71
2022/03/18 11:12:54;;;;;;;13.90;7.82;;;;;;;;;;4917122;29;20062;-66
2022/03/18 11:15:20;;;;;;;12.65;6.90;;;;;;;;;;4917231;29;20035;-70
2022/03/18 11:17:47;;;;;;;13.75;5.45;;;;;;;;;;4916087;29;20036;-66
2022/03/18 11:20:14;;;;;;;14.53;6.10;;;;;;;;;;4910878;29;20074;-68
2022/03/18 11:22:40;;;;;;;;;;;;;;;;;;4916866;29;20032;-66
2022/03/18 11:25:09;;;;;;;14.40;5.60;;;;;;;;;;4982601;28;19929;-66
2022/03/18 11:27:41;;;;;;;19.20;7.15;;;9.70;96.30;;;;;;4993700;28;20034;-67
2022/03/18 11:30:24;;;;;;;20.17;7.32;;;;;;;;;;4990651;28;20052;-67
2022/03/18 11:33:05;;;;;;;15.50;5.85;;;;;;;;;;4990681;28;20060;-67
2022/03/18 11:36:03;;;;;;;10.80;6.00;;;;;;;;;;4992559;28;20403;-67
2022/03/18 11:38:47;;;;;;;15.90;6.15;;;;;;;;;;4915709;29;20624;-66
2022/03/18 11:41:14;;;;;;;16.75;6.70;;;;;;;;;;4908112;29;20058;-68
2022/03/18 11:43:40;;;;;;;20.42;7.05;;;;;;;;;;4915777;29;20114;-67
2022/03/18 11:46:27;;;;;;;19.77;7.13;;;;;;;;;;4916635;29;20123;-66
2022/03/18 11:48:53;;;;;;;;;;;;;;;;;;4917100;29;20064;-66
2022/03/18 11:51:25;;;;;;;16.67;6.45;;;;;;;;;;4909369;29;19915;-65
2022/03/18 11:53:53;;;;;;;17.52;8.88;;;;;;;;;;4915158;29;20032;-67
2022/03/18 11:56:20;;;;;;;17.70;7.40;;;;;;;;;;4916134;29;20043;-66
2022/03/18 11:58:46;;;;;;;13.05;6.85;;;;;;;;;;4915745;29;20040;-67
2022/03/18 12:01:41;;;;;;;19.85;8.13;;;9.80;97.10;;;;;;4899426;29;20099;-66
2022/03/18 12:04:07;;;;;;;14.70;7.35;;;;;;;;;;4916539;29;20036;-68
2022/03/18 12:06:34;;;;;;;18.27;8.23;;;;;;;;;;4906388;29;20032;-67
2022/03/18 12:09:00;;;;;;;26.13;7.95;;;;;;;;;;4917379;29;20032;-68
2022/03/18 12:11:31;;;;;;;12.63;5.75;;;;;;;;;;4900918;29;20028;-70
2022/03/18 12:13:57;;;;;;;23.40;9.70;;;;;;;;;;4951280;28;20105;-64
2022/03/18 12:16:24;;;;;;;19.88;7.97;;;;;;;;;;4992616;28;20037;-66
2022/03/18 12:18:57;;;;;;;15.77;7.03;;;;;;;;;;4992663;28;20030;-65
2022/03/18 12:21:37;;;;;;;24.92;10.23;;;;;;;;;;4969699;28;20603;-65
2022/03/18 12:24:04;;;;;;;21.15;7.38;;;;;;;;;;4975782;28;20069;-65
2022/03/18 12:26:30;;;;;;;16.02;8.68;;;;;;;;;;4993608;28;20594;-65
2022/03/18 12:28:56;;;;;;;25.98;7.72;;;;;;;;;;4992393;28;20028;-64
2022/03/18 12:31:22;;;;;;;19.52;7.30;;;;;;;;;;4985213;28;20121;-65
2022/03/18 12:33:57;;;;;;;16.00;6.95;;;10.10;96.60;;;;;;4992913;28;20109;-65
2022/03/18 12:36:29;;;;;;;16.52;6.43;;;;;;;;;;4993902;28;20038;-65
2022/03/18 12:39:14;;;;;;;13.57;7.05;;;;;;;;;;4992208;28;20033;-65
2022/03/18 12:41:41;;;;;;;21.27;7.38;;;;;;;;;;4985149;28;20536;-65
2022/03/18 12:44:07;;;;;;;13.82;7.40;;;;;;;;;;4992673;28;20615;-65
2022/03/18 12:46:34;;;;;;;19.85;8.75;;;10.60;98.30;;;;;;4993254;28;20038;-66
2022/03/18 12:49:01;;;;;;;15.75;8.65;;;;;;;;;;4990568;28;20029;-64
2022/03/18 12:51:27;;;;;;;21.20;7.72;;;10.30;99.90;;;;;;4986993;28;20266;-69
2022/03/18 12:53:53;;;;;;;24.20;8.25;;;;;;;;;;4989268;28;20156;-71
2022/03/18 12:56:22;;;;;;;18.35;8.45;;;;;;;;;;4993499;28;20038;-70
2022/03/18 12:58:48;;;;;;;10.93;6.50;;;;;;;;;;4993107;28;20026;-71
2022/03/18 13:01:16;;;;;;;22.73;8.93;;;;;;;;;;4984959;28;20026;-65
2022/03/18 13:03:49;;;;;;;19.73;7.68;;;;;;;;;;4993301;28;20037;-65
2022/03/18 13:06:19;;;;;;;23.83;8.60;;;10.20;97.10;;;;;;4996470;28;20099;-64
2022/03/18 13:08:54;;;;;;;11.73;6.78;;;;;;;;;;4992851;28;20038;-65
2022/03/18 13:11:20;;;;;;;15.27;8.18;;;;;;;;;;4987175;28;20461;-66
2022/03/18 13:13:47;;;;;;;23.23;8.90;;;;;;;;;;4995418;28;20033;-65
2022/03/18 13:16:14;;;;;;;31.38;9.93;;;;;;;;;;4995041;28;20061;-65
2022/03/18 13:18:48;;;;;;;18.88;8.77;;;;;;;;;;4976238;28;20090;-66
2022/03/18 13:21:14;;;;;;;27.42;9.25;;;;;;;;;;4989702;28;20041;-68
2022/03/18 13:23:42;;;;;;;15.95;7.55;;;;;;;;;;4992500;28;20049;-70
2022/03/18 13:26:12;;;;;;;22.15;7.32;;;;;;;;;;4993391;28;20084;-69
2022/03/18 13:28:38;;;;;;;17.35;8.20;;;;;;;;;;4995940;28;20034;-68
2022/03/18 13:33:50;;;;;;;25.10;9.30;;;;;;;;;;4995465;28;20085;-67
2022/03/18 13:36:23;;;;;;;17.52;7.80;;;;;;;;;;4996904;28;20059;-67
2022/03/18 13:38:50;;;;;;;12.63;7.43;;;;;;;;;;4977312;28;20111;-68
2022/03/18 13:41:16;;;;;;;17.92;7.38;;;;;;;;;;4984463;28;20032;-68
2022/03/18 13:43:46;;;;;;;15.68;7.32;;;;;;;;;;4996006;28;20038;-68
2022/03/18 13:46:16;;;;;;;16.70;7.28;;;;;;;;;;4992911;28;20084;-68
2022/03/18 13:48:43;;;;;;;18.73;7.55;;;;;;;;;;4993609;28;20482;-67
2022/03/18 13:51:09;;;;;;;30.13;6.60;;;;;;;;;;4986556;28;20050;-67
2022/03/18 13:53:40;;;;;;;16.08;7.72;;;;;;;;;;4994196;28;20072;-68
2022/03/18 13:56:18;;;;;;;61.65;18.08;;;10.50;96.20;;;;;;4993688;28;20074;-68
2022/03/18 13:58:45;;;;;;;79.00;25.65;;;;;;;;;;4996615;28;20032;-67
2022/03/18 14:01:15;;;;;;;18.47;9.33;;;;;;;;;;4984747;28;20103;-68
2022/03/18 14:03:43;;;;;;;37.65;15.15;;;;;;;;;;4993750;28;20041;-68
2022/03/18 14:06:09;;;;;;;28.02;10.38;;;;;;;;;;4996747;28;20046;-67
2022/03/18 14:08:39;;;;;;;26.08;9.00;;;;;;;;;;4995096;28;20133;-68
2022/03/18 14:14:17;;;;;;;21.27;10.43;;;;;;;;;;4996604;28;20470;-67
2022/03/18 14:17:03;;;;;;;17.25;9.10;;;10.50;99.90;;;;;;4995568;28;20030;-67
2022/03/18 14:20:08;;;;;;;14.45;7.82;;;;;;;;;;4995887;28;20026;-67
2022/03/18 14:22:42;;;;;;;21.38;9.25;;;10.30;96.70;;;;;;4937680;29;20039;-67
2022/03/18 14:25:10;;;;;;;17.90;7.47;;;;;;;;;;4941564;29;20137;-67
2022/03/18 14:27:37;;;;;;;14.68;6.88;;;;;;;;;;4942332;29;20035;-68
2022/03/18 14:30:07;;;;;;;24.73;8.47;;;;;;;;;;4936978;29;20231;-68
2022/03/18 14:32:33;;;;;;;13.93;6.88;;;;;;;;;;4934194;29;20203;-67
2022/03/18 14:34:59;;;;;;;21.05;8.82;;;10.20;99.90;;;;;;4940438;29;20032;-67
2022/03/18 14:37:30;;;;;;;20.42;8.07;;;;;;;;;;4940589;29;20031;-66
2022/03/18 14:39:56;;;;;;;16.88;6.82;;;;;;;;;;4937216;29;20176;-62
2022/03/18 14:42:22;;;;;;;16.30;7.72;;;;;;;;;;4936555;29;20123;-64
2022/03/18 14:44:48;;;;;;;27.33;8.05;;;;;;;;;;4939739;29;20055;-64
2022/03/18 14:47:14;;;;;;;20.15;6.78;;;;;;;;;;4941072;29;20149;-64